Airports

 

 

Airport Name Latest METAR Visual Conditions
Atlantic City Int. (ACY) KACY 211754Z 10SM CLR 02/M14 A3048 RMK AO2 SLP323 T00171144 10017 21061 58008 VFR
Baltimore International Airport (BWI) KBWI 211754Z COR 35006KT 10SM CLR 01/M14 A3052 RMK AO2 SLP337 T00111144 10017 21050 58012 VFR
Washington National Airport (DCA) KDCA 211752Z 32009G14KT 10SM CLR 02/M12 A3055 RMK AO2 SLP344 T00221122 10022 21044 58010 VFR
Dulles International Airport (IAD) KIAD 211752Z 35007KT 10SM CLR 01/M13 A3054 RMK AO2 SLP344 T00061133 10011 21061 58010 VFR
Norfolk International Airport (ORF) KORF 211751Z 01019G24KT 10SM SCT031 02/M07 A3049 RMK AO2 PK WND 03029/1731 SLP324 T00171072 10017 20000 50006 VFR
Raleigh International Airport (RDU) KRDU 211751Z 02009KT 10SM SCT028 M01/M07 A3052 RMK AO2 SLP337 4/001 T10061067 11006 21028 50003 VFR
Richmond International Airport (RIC) KRIC 211754Z 01007KT 10SM CLR 02/M11 A3051 RMK AO2 SLP339 T00171111 10022 21039 58006 VFR
Roanoke Regional Airport (ROA) KROA 211754Z 34006G16KT 10SM CLR 05/M14 A3049 RMK AO2 SLP334 T00501144 10050 21044 58007 VFR